PWSweather.com
Personal Weather Stations
Station Observations
KC4KQE
Superstition Mountains, Apache Junction, AZ 85119

Superstition MountainsApache Junction, AZ 85119

Lat: 33.41578, Lon: -111.49328

Elevation: 1850

Station Type: Davis Vantage Pro2 Plus

http://kc4kqe.org/

Latest ConditionsUpdated 10:10:05 PM MST Monday, Sep 26, 2016
Currently Today's Max Today's Min Today's Average
Temperature 74.3°F23.5°C 87.8°F31.0°C 74.3°F23.5°C 81.3°F27.4°C
Dew Point 48.3°F9.1°C 56.7°F13.7°C 32.7°F0.4°C 46.0°F7.8°C
Winds Calm Calm 19.0 mph E30.6 kmh E - 4.1 mph 6.6 kmh
Wind Gusts -- 21.0 mph33.8 kmh - -
Humidity 40% 53% 17% 30%
Pressure 30.02 in1016.6 mb 30.09 in1019.0 mb 29.97 in1014.9 mb -
Precipitation - 0.01 in0.3 mm - -
Hour Temp Dew Point Humidity Winds Wind Gusts Pressure Precip Precip Rate Daily Precip Total
10:10 PM 74.3°F23.5°C 48.3°F9.1°C 40% Calm Calm -- 30.02 in1016.6 mb 0.00 in0.0 mm 0.00 in0.0 mm 0.01 in0.3 mm
10:05 PM 74.4°F23.6°C 48.4°F9.1°C 40% Calm Calm -- 30.02 in1016.6 mb 0.00 in0.0 mm 0.00 in0.0 mm 0.01 in0.3 mm
10:00 PM 74.5°F23.6°C 48.5°F9.2°C 40% Calm Calm 4.0 mph6.4 kmh 30.02 in1016.6 mb 0.00 in0.0 mm 0.00 in0.0 mm 0.01 in0.3 mm
09:55 PM 74.6°F23.7°C 47.9°F8.8°C 39% 2.0 mph SSW3.2 kmh SSW 4.0 mph6.4 kmh 30.02 in1016.6 mb 0.00 in0.0 mm 0.00 in0.0 mm 0.01 in0.3 mm
09:50 PM 74.6°F23.7°C 48.6°F9.2°C 40% 2.0 mph SE3.2 kmh SE 2.0 mph3.2 kmh 30.02 in1016.6 mb 0.00 in0.0 mm 0.00 in0.0 mm 0.01 in0.3 mm
09:45 PM 74.6°F23.7°C 47.9°F8.8°C 39% 2.0 mph E3.2 kmh E 6.0 mph9.7 kmh 30.01 in1016.3 mb 0.00 in0.0 mm 0.00 in0.0 mm 0.01 in0.3 mm
09:40 PM 74.6°F23.7°C 47.9°F8.8°C 39% 2.0 mph ESE3.2 kmh ESE 4.0 mph6.4 kmh 30.02 in1016.6 mb 0.00 in0.0 mm 0.00 in0.0 mm 0.01 in0.3 mm
09:35 PM 74.8°F23.8°C 49.5°F9.7°C 41% 1.0 mph E1.6 kmh E 5.0 mph8.0 kmh 30.02 in1016.6 mb 0.00 in0.0 mm 0.00 in0.0 mm 0.01 in0.3 mm
09:30 PM 74.9°F23.8°C 48.9°F9.4°C 40% 4.0 mph N6.4 kmh N 6.0 mph9.7 kmh 30.01 in1016.3 mb 0.00 in0.0 mm 0.00 in0.0 mm 0.01 in0.3 mm
09:25 PM 75.1°F23.9°C 49.1°F9.5°C 40% 2.0 mph NW3.2 kmh NW 5.0 mph8.0 kmh 30.01 in1016.3 mb 0.00 in0.0 mm 0.00 in0.0 mm 0.01 in0.3 mm
09:20 PM 75.4°F24.1°C 49.3°F9.6°C 40% 2.0 mph WNW3.2 kmh WNW 6.0 mph9.7 kmh 30.01 in1016.3 mb 0.00 in0.0 mm 0.00 in0.0 mm 0.01 in0.3 mm
09:15 PM 75.8°F24.3°C 49.7°F9.8°C 40% 4.0 mph WSW6.4 kmh WSW 5.0 mph8.0 kmh 30.02 in1016.6 mb 0.00 in0.0 mm 0.00 in0.0 mm 0.01 in0.3 mm
09:10 PM 76.1°F24.5°C 50.0°F10.0°C 40% 4.0 mph W6.4 kmh W 6.0 mph9.7 kmh 30.02 in1016.6 mb 0.00 in0.0 mm 0.00 in0.0 mm 0.01 in0.3 mm
09:05 PM 76.6°F24.8°C 49.7°F9.8°C 39% 4.0 mph W6.4 kmh W 6.0 mph9.7 kmh 30.01 in1016.3 mb 0.00 in0.0 mm 0.00 in0.0 mm 0.01 in0.3 mm
09:00 PM 76.8°F24.9°C 49.2°F9.6°C 38% 1.0 mph NW1.6 kmh NW 5.0 mph8.0 kmh 30.01 in1016.3 mb 0.00 in0.0 mm 0.00 in0.0 mm 0.01 in0.3 mm
08:55 PM 76.8°F24.9°C 47.8°F8.8°C 36% 3.0 mph E4.8 kmh E 9.0 mph14.5 kmh 30.00 in1015.9 mb 0.00 in0.0 mm 0.00 in0.0 mm 0.01 in0.3 mm
08:50 PM 76.8°F24.9°C 47.8°F8.8°C 36% 5.0 mph ESE8.0 kmh ESE 11.0 mph17.7 kmh 30.00 in1015.9 mb 0.00 in0.0 mm 0.00 in0.0 mm 0.01 in0.3 mm
08:45 PM 76.9°F24.9°C 47.8°F8.8°C 36% 6.0 mph E9.7 kmh E 13.0 mph20.9 kmh 30.00 in1015.9 mb 0.00 in0.0 mm 0.00 in0.0 mm 0.01 in0.3 mm
08:40 PM 77.1°F25.1°C 48.0°F8.9°C 36% 11.0 mph ESE17.7 kmh ESE 11.0 mph17.7 kmh 30.00 in1015.9 mb 0.00 in0.0 mm 0.00 in0.0 mm 0.01 in0.3 mm
08:35 PM 77.1°F25.1°C 47.3°F8.5°C 35% 4.0 mph SE6.4 kmh SE 13.0 mph20.9 kmh 30.00 in1015.9 mb 0.00 in0.0 mm 0.00 in0.0 mm 0.01 in0.3 mm
08:30 PM 76.8°F24.9°C 47.0°F8.3°C 35% 5.0 mph SSE8.0 kmh SSE 12.0 mph19.3 kmh 30.00 in1015.9 mb 0.00 in0.0 mm 0.00 in0.0 mm 0.01 in0.3 mm
08:25 PM 76.3°F24.6°C 47.3°F8.5°C 36% 5.0 mph SE8.0 kmh SE 10.0 mph16.1 kmh 30.00 in1015.9 mb 0.00 in0.0 mm 0.00 in0.0 mm 0.01 in0.3 mm
08:20 PM 75.8°F24.3°C 47.6°F8.7°C 37% 4.0 mph SE6.4 kmh SE 8.0 mph12.9 kmh 30.00 in1015.9 mb 0.00 in0.0 mm 0.00 in0.0 mm 0.01 in0.3 mm
08:15 PM 75.9°F24.4°C 51.1°F10.6°C 42% Calm Calm 4.0 mph6.4 kmh 30.00 in1015.9 mb 0.00 in0.0 mm 0.00 in0.0 mm 0.01 in0.3 mm
08:10 PM 76.0°F24.4°C 49.9°F9.9°C 40% 2.0 mph N3.2 kmh N 8.0 mph12.9 kmh 30.00 in1015.9 mb 0.00 in0.0 mm 0.00 in0.0 mm 0.01 in0.3 mm
08:05 PM 76.2°F24.6°C 51.4°F10.8°C 42% 3.0 mph ENE4.8 kmh ENE 5.0 mph8.0 kmh 30.00 in1015.9 mb 0.00 in0.0 mm 0.00 in0.0 mm 0.01 in0.3 mm
08:00 PM 76.5°F24.7°C 48.9°F9.4°C 38% 2.0 mph SE3.2 kmh SE 3.0 mph4.8 kmh 30.00 in1015.9 mb 0.00 in0.0 mm 0.00 in0.0 mm 0.01 in0.3 mm
07:55 PM 76.7°F24.8°C 49.1°F9.5°C 38% 2.0 mph SSE3.2 kmh SSE 4.0 mph6.4 kmh 29.99 in1015.6 mb 0.00 in0.0 mm 0.00 in0.0 mm 0.01 in0.3 mm
07:50 PM 76.8°F24.9°C 48.5°F9.2°C 37% Calm Calm 7.0 mph11.3 kmh 29.99 in1015.6 mb 0.00 in0.0 mm 0.00 in0.0 mm 0.01 in0.3 mm
07:45 PM 77.0°F25.0°C 48.7°F9.3°C 37% 2.0 mph E3.2 kmh E 5.0 mph8.0 kmh 29.99 in1015.6 mb 0.00 in0.0 mm 0.00 in0.0 mm 0.01 in0.3 mm
07:40 PM 77.1°F25.1°C 48.0°F8.9°C 36% 2.0 mph S3.2 kmh S 3.0 mph4.8 kmh 30.00 in1015.9 mb 0.00 in0.0 mm 0.00 in0.0 mm 0.01 in0.3 mm
07:35 PM 77.2°F25.1°C 48.8°F9.3°C 37% Calm Calm 6.0 mph9.7 kmh 29.99 in1015.6 mb 0.00 in0.0 mm 0.00 in0.0 mm 0.01 in0.3 mm
07:30 PM 77.3°F25.2°C 48.9°F9.4°C 37% 3.0 mph S4.8 kmh S 4.0 mph6.4 kmh 29.99 in1015.6 mb 0.00 in0.0 mm 0.00 in0.0 mm 0.01 in0.3 mm
07:25 PM 77.3°F25.2°C 48.9°F9.4°C 37% 3.0 mph SSW4.8 kmh SSW 6.0 mph9.7 kmh 29.99 in1015.6 mb 0.00 in0.0 mm 0.00 in0.0 mm 0.01 in0.3 mm
07:20 PM 77.3°F25.2°C 48.2°F9.0°C 36% 3.0 mph WSW4.8 kmh WSW 7.0 mph11.3 kmh 29.99 in1015.6 mb 0.00 in0.0 mm 0.00 in0.0 mm 0.01 in0.3 mm
07:15 PM 77.3°F25.2°C 48.2°F9.0°C 36% 3.0 mph ENE4.8 kmh ENE 11.0 mph17.7 kmh 29.98 in1015.2 mb 0.00 in0.0 mm 0.00 in0.0 mm 0.01 in0.3 mm
07:10 PM 77.5°F25.3°C 50.5°F10.3°C 39% 2.0 mph NE3.2 kmh NE 6.0 mph9.7 kmh 29.99 in1015.6 mb 0.00 in0.0 mm 0.00 in0.0 mm 0.01 in0.3 mm
07:05 PM 78.0°F25.6°C 51.0°F10.6°C 39% 4.0 mph W6.4 kmh W 9.0 mph14.5 kmh 29.98 in1015.2 mb 0.00 in0.0 mm 0.00 in0.0 mm 0.01 in0.3 mm
07:00 PM 78.4°F25.8°C 51.3°F10.7°C 39% 4.0 mph WSW6.4 kmh WSW 7.0 mph11.3 kmh 29.98 in1015.2 mb 0.00 in0.0 mm 0.00 in0.0 mm 0.01 in0.3 mm
06:55 PM 78.8°F26.0°C 52.4°F11.3°C 40% 5.0 mph NW8.0 kmh NW 8.0 mph12.9 kmh 29.98 in1015.2 mb 0.00 in0.0 mm 0.00 in0.0 mm 0.01 in0.3 mm
06:50 PM 79.4°F26.3°C 52.2°F11.2°C 39% 6.0 mph WSW9.7 kmh WSW 10.0 mph16.1 kmh 29.98 in1015.2 mb 0.00 in0.0 mm 0.00 in0.0 mm 0.01 in0.3 mm
06:45 PM 79.9°F26.6°C 50.5°F10.3°C 36% 1.0 mph SW1.6 kmh SW 5.0 mph8.0 kmh 29.97 in1014.9 mb 0.00 in0.0 mm 0.00 in0.0 mm 0.01 in0.3 mm
06:40 PM 79.9°F26.6°C 49.7°F9.8°C 35% 3.0 mph NNW4.8 kmh NNW 9.0 mph14.5 kmh 29.97 in1014.9 mb 0.00 in0.0 mm 0.00 in0.0 mm 0.01 in0.3 mm
06:35 PM 79.7°F26.5°C 49.6°F9.8°C 35% 9.0 mph NE14.5 kmh NE 10.0 mph16.1 kmh 29.97 in1014.9 mb 0.00 in0.0 mm 0.00 in0.0 mm 0.01 in0.3 mm
06:30 PM 79.4°F26.3°C 49.3°F9.6°C 35% 3.0 mph ENE4.8 kmh ENE 12.0 mph19.3 kmh 29.97 in1014.9 mb 0.00 in0.0 mm 0.00 in0.0 mm 0.01 in0.3 mm
06:25 PM 78.4°F25.8°C 49.2°F9.6°C 36% 8.0 mph ENE12.9 kmh ENE 18.0 mph29.0 kmh 29.97 in1014.9 mb 0.00 in0.0 mm 0.00 in0.0 mm 0.01 in0.3 mm
06:20 PM 77.2°F25.1°C 51.6°F10.9°C 41% 4.0 mph E6.4 kmh E 8.0 mph12.9 kmh 29.97 in1014.9 mb 0.00 in0.0 mm 0.00 in0.0 mm 0.01 in0.3 mm
06:15 PM 77.2°F25.1°C 51.6°F10.9°C 41% 5.0 mph SE8.0 kmh SE 12.0 mph19.3 kmh 29.97 in1014.9 mb 0.00 in0.0 mm 0.00 in0.0 mm 0.01 in0.3 mm
06:10 PM 77.1°F25.1°C 50.8°F10.4°C 40% 7.0 mph ESE11.3 kmh ESE 11.0 mph17.7 kmh 29.97 in1014.9 mb 0.00 in0.0 mm 0.00 in0.0 mm 0.01 in0.3 mm
06:05 PM 77.1°F25.1°C 50.8°F10.4°C 40% 3.0 mph SE4.8 kmh SE 17.0 mph27.4 kmh 29.97 in1014.9 mb 0.00 in0.0 mm 0.00 in0.0 mm 0.01 in0.3 mm
06:00 PM 77.0°F25.0°C 50.8°F10.4°C 40% 11.0 mph SE17.7 kmh SE 15.0 mph24.1 kmh 29.97 in1014.9 mb 0.00 in0.0 mm 0.00 in0.0 mm 0.01 in0.3 mm
05:55 PM 76.9°F24.9°C 50.7°F10.4°C 40% 13.0 mph ESE20.9 kmh ESE 20.0 mph32.2 kmh 29.97 in1014.9 mb 0.00 in0.0 mm 0.00 in0.0 mm 0.01 in0.3 mm
05:50 PM 76.9°F24.9°C 51.3°F10.7°C 41% 11.0 mph ESE17.7 kmh ESE 14.0 mph22.5 kmh 29.98 in1015.2 mb 0.00 in0.0 mm 0.00 in0.0 mm 0.01 in0.3 mm
05:45 PM 77.3°F25.2°C 51.7°F10.9°C 41% 7.0 mph SSE11.3 kmh SSE 13.0 mph20.9 kmh 29.98 in1015.2 mb 0.01 in0.3 mm 0.00 in0.0 mm 0.01 in0.3 mm
05:40 PM 77.5°F25.3°C 51.9°F11.1°C 41% 9.0 mph SE14.5 kmh SE 11.0 mph17.7 kmh 29.98 in1015.2 mb 0.01 in0.3 mm 0.00 in0.0 mm 0.01 in0.3 mm
05:35 PM 77.5°F25.3°C 51.9°F11.1°C 41% 4.0 mph SE6.4 kmh SE 11.0 mph17.7 kmh 29.98 in1015.2 mb 0.01 in0.3 mm 0.00 in0.0 mm 0.01 in0.3 mm
05:30 PM 77.0°F25.0°C 51.4°F10.8°C 41% 13.0 mph ESE20.9 kmh ESE 17.0 mph27.4 kmh 29.98 in1015.2 mb 0.01 in0.3 mm 0.00 in0.0 mm 0.01 in0.3 mm
05:25 PM 76.4°F24.7°C 52.8°F11.6°C 44% 10.0 mph SE16.1 kmh SE 16.0 mph25.7 kmh 29.98 in1015.2 mb 0.01 in0.3 mm 0.00 in0.0 mm 0.01 in0.3 mm
05:20 PM 75.8°F24.3°C 54.1°F12.3°C 47% 8.0 mph SE12.9 kmh SE 16.0 mph25.7 kmh 29.98 in1015.2 mb 0.01 in0.3 mm 0.00 in0.0 mm 0.01 in0.3 mm
05:15 PM 75.1°F23.9°C 55.7°F13.2°C 51% 7.0 mph ESE11.3 kmh ESE 15.0 mph24.1 kmh 29.98 in1015.2 mb 0.01 in0.3 mm 0.00 in0.0 mm 0.01 in0.3 mm
05:10 PM 74.8°F23.8°C 55.4°F13.0°C 51% 7.0 mph SE11.3 kmh SE 18.0 mph29.0 kmh 29.98 in1015.2 mb 0.01 in0.3 mm 0.00 in0.0 mm 0.01 in0.3 mm
05:05 PM 74.7°F23.7°C 55.8°F13.2°C 52% 10.0 mph ESE16.1 kmh ESE 16.0 mph25.7 kmh 29.98 in1015.2 mb 0.01 in0.3 mm 0.00 in0.0 mm 0.01 in0.3 mm
05:00 PM 75.1°F23.9°C 56.7°F13.7°C 53% 19.0 mph E30.6 kmh E 19.0 mph30.6 kmh 29.99 in1015.6 mb 0.01 in0.3 mm 0.00 in0.0 mm 0.01 in0.3 mm
04:55 PM 76.1°F24.5°C 56.6°F13.7°C 51% 7.0 mph SE11.3 kmh SE 17.0 mph27.4 kmh 29.99 in1015.6 mb 0.01 in0.3 mm 0.00 in0.0 mm 0.01 in0.3 mm
04:50 PM 77.3°F25.2°C 53.6°F12.0°C 44% 10.0 mph E16.1 kmh E 18.0 mph29.0 kmh 29.99 in1015.6 mb 0.01 in0.3 mm 0.12 in3.0 mm 0.01 in0.3 mm
04:45 PM 77.4°F25.2°C 53.1°F11.7°C 43% 12.0 mph ESE19.3 kmh ESE 20.0 mph32.2 kmh 29.98 in1015.2 mb 0.00 in0.0 mm 0.00 in0.0 mm 0.00 in0.0 mm
04:40 PM 77.0°F25.0°C 54.0°F12.2°C 45% 11.0 mph SE17.7 kmh SE 13.0 mph20.9 kmh 29.98 in1015.2 mb 0.00 in0.0 mm 0.00 in0.0 mm 0.00 in0.0 mm
04:35 PM 77.3°F25.2°C 55.4°F13.0°C 47% 5.0 mph SSE8.0 kmh SSE 9.0 mph14.5 kmh 29.98 in1015.2 mb 0.00 in0.0 mm 0.00 in0.0 mm 0.00 in0.0 mm
04:30 PM 77.8°F25.4°C 54.7°F12.6°C 45% 2.0 mph ESE3.2 kmh ESE 11.0 mph17.7 kmh 29.98 in1015.2 mb 0.00 in0.0 mm 0.00 in0.0 mm 0.00 in0.0 mm
04:25 PM 79.0°F26.1°C 54.5°F12.5°C 43% 6.0 mph SE9.7 kmh SE 16.0 mph25.7 kmh 29.98 in1015.2 mb 0.00 in0.0 mm 0.00 in0.0 mm 0.00 in0.0 mm
04:20 PM 80.7°F27.1°C 54.1°F12.3°C 40% 6.0 mph SE9.7 kmh SE 18.0 mph29.0 kmh 29.99 in1015.6 mb 0.00 in0.0 mm 0.00 in0.0 mm 0.00 in0.0 mm
04:15 PM 82.2°F27.9°C 53.3°F11.8°C 37% 15.0 mph ESE24.1 kmh ESE 13.0 mph20.9 kmh 29.99 in1015.6 mb 0.00 in0.0 mm 0.00 in0.0 mm 0.00 in0.0 mm
04:10 PM 83.4°F28.6°C 49.5°F9.7°C 31% 9.0 mph SE14.5 kmh SE 21.0 mph33.8 kmh 29.99 in1015.6 mb 0.00 in0.0 mm 0.00 in0.0 mm 0.00 in0.0 mm
04:05 PM 83.7°F28.7°C 46.1°F7.8°C 27% 16.0 mph ESE25.7 kmh ESE 18.0 mph29.0 kmh 29.99 in1015.6 mb 0.00 in0.0 mm 0.00 in0.0 mm 0.00 in0.0 mm
04:00 PM 84.1°F28.9°C 47.4°F8.6°C 28% 4.0 mph ESE6.4 kmh ESE 19.0 mph30.6 kmh 29.99 in1015.6 mb 0.00 in0.0 mm 0.00 in0.0 mm 0.00 in0.0 mm
03:55 PM 84.6°F29.2°C 47.8°F8.8°C 28% 6.0 mph SE9.7 kmh SE 17.0 mph27.4 kmh 29.99 in1015.6 mb 0.00 in0.0 mm 0.00 in0.0 mm 0.00 in0.0 mm
03:50 PM 84.7°F29.3°C 46.9°F8.3°C 27% 8.0 mph SE12.9 kmh SE 13.0 mph20.9 kmh 29.99 in1015.6 mb 0.00 in0.0 mm 0.00 in0.0 mm 0.00 in0.0 mm
03:45 PM 84.6°F29.2°C 46.9°F8.3°C 27% 4.0 mph SE6.4 kmh SE 18.0 mph29.0 kmh 29.99 in1015.6 mb 0.00 in0.0 mm 0.00 in0.0 mm 0.00 in0.0 mm
03:40 PM 84.5°F29.2°C 46.8°F8.2°C 27% 5.0 mph SE8.0 kmh SE 14.0 mph22.5 kmh 30.00 in1015.9 mb 0.00 in0.0 mm 0.00 in0.0 mm 0.00 in0.0 mm
03:35 PM 84.5°F29.2°C 46.8°F8.2°C 27% 11.0 mph SE17.7 kmh SE 14.0 mph22.5 kmh 30.00 in1015.9 mb 0.00 in0.0 mm 0.00 in0.0 mm 0.00 in0.0 mm
03:30 PM 84.4°F29.1°C 46.7°F8.2°C 27% 11.0 mph ESE17.7 kmh ESE 15.0 mph24.1 kmh 30.00 in1015.9 mb 0.00 in0.0 mm 0.00 in0.0 mm 0.00 in0.0 mm
03:25 PM 84.5°F29.2°C 46.8°F8.2°C 27% 7.0 mph SE11.3 kmh SE 13.0 mph20.9 kmh 30.00 in1015.9 mb 0.00 in0.0 mm 0.00 in0.0 mm 0.00 in0.0 mm
03:20 PM 84.6°F29.2°C 46.9°F8.3°C 27% 4.0 mph SSE6.4 kmh SSE 15.0 mph24.1 kmh 30.01 in1016.3 mb 0.00 in0.0 mm 0.00 in0.0 mm 0.00 in0.0 mm
03:15 PM 84.5°F29.2°C 46.8°F8.2°C 27% 13.0 mph ESE20.9 kmh ESE 16.0 mph25.7 kmh 30.01 in1016.3 mb 0.00 in0.0 mm 0.00 in0.0 mm 0.00 in0.0 mm
03:10 PM 84.8°F29.3°C 46.0°F7.8°C 26% 5.0 mph ESE8.0 kmh ESE 15.0 mph24.1 kmh 30.01 in1016.3 mb 0.00 in0.0 mm 0.00 in0.0 mm 0.00 in0.0 mm
03:05 PM 85.1°F29.5°C 46.3°F7.9°C 26% 3.0 mph SE4.8 kmh SE 18.0 mph29.0 kmh 30.01 in1016.3 mb 0.00 in0.0 mm 0.00 in0.0 mm 0.00 in0.0 mm
03:00 PM 85.5°F29.7°C 46.6°F8.1°C 26% 17.0 mph SE27.4 kmh SE 18.0 mph29.0 kmh 30.01 in1016.3 mb 0.00 in0.0 mm 0.00 in0.0 mm 0.00 in0.0 mm
02:55 PM 85.8°F29.9°C 45.8°F7.7°C 25% 5.0 mph SE8.0 kmh SE 16.0 mph25.7 kmh 30.01 in1016.3 mb 0.00 in0.0 mm 0.00 in0.0 mm 0.00 in0.0 mm
02:50 PM 86.2°F30.1°C 46.2°F7.9°C 25% 10.0 mph SSE16.1 kmh SSE 15.0 mph24.1 kmh 30.01 in1016.3 mb 0.00 in0.0 mm 0.00 in0.0 mm 0.00 in0.0 mm
02:45 PM 86.6°F30.3°C 46.5°F8.1°C 25% 8.0 mph ESE12.9 kmh ESE 13.0 mph20.9 kmh 30.01 in1016.3 mb 0.00 in0.0 mm 0.00 in0.0 mm 0.00 in0.0 mm
02:40 PM 86.9°F30.5°C 45.7°F7.6°C 24% 8.0 mph SSE12.9 kmh SSE 14.0 mph22.5 kmh 30.01 in1016.3 mb 0.00 in0.0 mm 0.00 in0.0 mm 0.00 in0.0 mm
02:35 PM 87.2°F30.7°C 45.9°F7.7°C 24% 10.0 mph ESE16.1 kmh ESE 11.0 mph17.7 kmh 30.01 in1016.3 mb 0.00 in0.0 mm 0.00 in0.0 mm 0.00 in0.0 mm
02:30 PM 87.1°F30.6°C 45.8°F7.7°C 24% 4.0 mph SE6.4 kmh SE 8.0 mph12.9 kmh 30.01 in1016.3 mb 0.00 in0.0 mm 0.00 in0.0 mm 0.00 in0.0 mm
02:25 PM 86.9°F30.5°C 45.7°F7.6°C 24% 2.0 mph SE3.2 kmh SE 10.0 mph16.1 kmh 30.01 in1016.3 mb 0.00 in0.0 mm 0.00 in0.0 mm 0.00 in0.0 mm
02:20 PM 86.8°F30.4°C 45.6°F7.6°C 24% 4.0 mph SE6.4 kmh SE 10.0 mph16.1 kmh 30.01 in1016.3 mb 0.00 in0.0 mm 0.00 in0.0 mm 0.00 in0.0 mm
02:15 PM 87.2°F30.7°C 45.9°F7.7°C 24% 3.0 mph SE4.8 kmh SE 12.0 mph19.3 kmh 30.01 in1016.3 mb 0.00 in0.0 mm 0.00 in0.0 mm 0.00 in0.0 mm
02:10 PM 87.0°F30.6°C 45.8°F7.7°C 24% 5.0 mph ESE8.0 kmh ESE 6.0 mph9.7 kmh 30.01 in1016.3 mb 0.00 in0.0 mm 0.00 in0.0 mm 0.00 in0.0 mm
02:05 PM 86.7°F30.4°C 46.6°F8.1°C 25% 5.0 mph S8.0 kmh S 9.0 mph14.5 kmh 30.02 in1016.6 mb 0.00 in0.0 mm 0.00 in0.0 mm 0.00 in0.0 mm
02:00 PM 86.8°F30.4°C 46.7°F8.2°C 25% 4.0 mph ESE6.4 kmh ESE 9.0 mph14.5 kmh 30.02 in1016.6 mb 0.00 in0.0 mm 0.00 in0.0 mm 0.00 in0.0 mm
01:55 PM 86.7°F30.4°C 46.6°F8.1°C 25% 3.0 mph SSE4.8 kmh SSE 5.0 mph8.0 kmh 30.02 in1016.6 mb 0.00 in0.0 mm 0.00 in0.0 mm 0.00 in0.0 mm
01:50 PM 86.7°F30.4°C 46.6°F8.1°C 25% 5.0 mph SSE8.0 kmh SSE 9.0 mph14.5 kmh 30.02 in1016.6 mb 0.00 in0.0 mm 0.00 in0.0 mm 0.00 in0.0 mm
01:45 PM 87.0°F30.6°C 46.8°F8.2°C 25% 3.0 mph SSE4.8 kmh SSE 9.0 mph14.5 kmh 30.02 in1016.6 mb 0.00 in0.0 mm 0.00 in0.0 mm 0.00 in0.0 mm
01:40 PM 87.5°F30.8°C 46.2°F7.9°C 24% 4.0 mph SE6.4 kmh SE 8.0 mph12.9 kmh 30.02 in1016.6 mb 0.00 in0.0 mm 0.00 in0.0 mm 0.00 in0.0 mm
01:35 PM 87.8°F31.0°C 47.5°F8.6°C 25% 4.0 mph SW6.4 kmh SW 8.0 mph12.9 kmh 30.02 in1016.6 mb 0.00 in0.0 mm 0.00 in0.0 mm 0.00 in0.0 mm
01:30 PM 87.7°F30.9°C 47.4°F8.6°C 25% 2.0 mph SSW3.2 kmh SSW 6.0 mph9.7 kmh 30.03 in1016.9 mb 0.00 in0.0 mm 0.00 in0.0 mm 0.00 in0.0 mm
01:25 PM 87.2°F30.7°C 48.1°F8.9°C 26% 3.0 mph SW4.8 kmh SW 7.0 mph11.3 kmh 30.03 in1016.9 mb 0.00 in0.0 mm 0.00 in0.0 mm 0.00 in0.0 mm
01:20 PM 86.7°F30.4°C 47.6°F8.7°C 26% 4.0 mph SW6.4 kmh SW 9.0 mph14.5 kmh 30.03 in1016.9 mb 0.00 in0.0 mm 0.00 in0.0 mm 0.00 in0.0 mm
01:15 PM 86.1°F30.1°C 46.1°F7.8°C 25% 3.0 mph WSW4.8 kmh WSW 6.0 mph9.7 kmh 30.03 in1016.9 mb 0.00 in0.0 mm 0.00 in0.0 mm 0.00 in0.0 mm
01:10 PM 85.7°F29.8°C 45.7°F7.6°C 25% 1.0 mph SSW1.6 kmh SSW 6.0 mph9.7 kmh 30.04 in1017.3 mb 0.00 in0.0 mm 0.00 in0.0 mm 0.00 in0.0 mm
01:05 PM 85.5°F29.7°C 46.6°F8.1°C 26% 1.0 mph SSE1.6 kmh SSE 12.0 mph19.3 kmh 30.04 in1017.3 mb 0.00 in0.0 mm 0.00 in0.0 mm 0.00 in0.0 mm
01:00 PM 85.4°F29.7°C 46.5°F8.1°C 26% 2.0 mph SE3.2 kmh SE 5.0 mph8.0 kmh 30.04 in1017.3 mb 0.00 in0.0 mm 0.00 in0.0 mm 0.00 in0.0 mm
12:55 PM 85.5°F29.7°C 46.6°F8.1°C 26% 3.0 mph SE4.8 kmh SE 6.0 mph9.7 kmh 30.04 in1017.3 mb 0.00 in0.0 mm 0.00 in0.0 mm 0.00 in0.0 mm
12:50 PM 85.5°F29.7°C 47.6°F8.7°C 27% 1.0 mph SSE1.6 kmh SSE 4.0 mph6.4 kmh 30.04 in1017.3 mb 0.00 in0.0 mm 0.00 in0.0 mm 0.00 in0.0 mm
12:45 PM 85.5°F29.7°C 48.6°F9.2°C 28% 2.0 mph SW3.2 kmh SW 7.0 mph11.3 kmh 30.05 in1017.6 mb 0.00 in0.0 mm 0.00 in0.0 mm 0.00 in0.0 mm
12:40 PM 85.4°F29.7°C 45.5°F7.5°C 25% 3.0 mph SW4.8 kmh SW 6.0 mph9.7 kmh 30.05 in1017.6 mb 0.00 in0.0 mm 0.00 in0.0 mm 0.00 in0.0 mm
12:35 PM 85.4°F29.7°C 45.5°F7.5°C 25% 4.0 mph SW6.4 kmh SW 9.0 mph14.5 kmh 30.05 in1017.6 mb 0.00 in0.0 mm 0.00 in0.0 mm 0.00 in0.0 mm
12:30 PM 85.2°F29.6°C 45.3°F7.4°C 25% 5.0 mph SSE8.0 kmh SSE 8.0 mph12.9 kmh 30.05 in1017.6 mb 0.00 in0.0 mm 0.00 in0.0 mm 0.00 in0.0 mm
12:25 PM 84.9°F29.4°C 45.1°F7.3°C 25% 4.0 mph S6.4 kmh S 8.0 mph12.9 kmh 30.05 in1017.6 mb 0.00 in0.0 mm 0.00 in0.0 mm 0.00 in0.0 mm
12:20 PM 84.7°F29.3°C 44.9°F7.2°C 25% 2.0 mph ESE3.2 kmh ESE 10.0 mph16.1 kmh 30.05 in1017.6 mb 0.00 in0.0 mm 0.00 in0.0 mm 0.00 in0.0 mm
12:15 PM 84.6°F29.2°C 44.8°F7.1°C 25% 2.0 mph ESE3.2 kmh ESE 10.0 mph16.1 kmh 30.06 in1017.9 mb 0.00 in0.0 mm 0.00 in0.0 mm 0.00 in0.0 mm
12:10 PM 84.6°F29.2°C 44.8°F7.1°C 25% 8.0 mph E12.9 kmh E 11.0 mph17.7 kmh 30.06 in1017.9 mb 0.00 in0.0 mm 0.00 in0.0 mm 0.00 in0.0 mm
12:05 PM 84.5°F29.2°C 44.7°F7.1°C 25% 3.0 mph SE4.8 kmh SE 11.0 mph17.7 kmh 30.06 in1017.9 mb 0.00 in0.0 mm 0.00 in0.0 mm 0.00 in0.0 mm
12:00 PM 84.7°F29.3°C 44.9°F7.2°C 25% 10.0 mph SE16.1 kmh SE 16.0 mph25.7 kmh 30.06 in1017.9 mb 0.00 in0.0 mm 0.00 in0.0 mm 0.00 in0.0 mm
11:55 AM 84.8°F29.3°C 45.0°F7.2°C 25% 8.0 mph ESE12.9 kmh ESE 12.0 mph19.3 kmh 30.06 in1017.9 mb 0.00 in0.0 mm 0.00 in0.0 mm 0.00 in0.0 mm
11:50 AM 84.7°F29.3°C 44.9°F7.2°C 25% 5.0 mph SE8.0 kmh SE 11.0 mph17.7 kmh 30.06 in1017.9 mb 0.00 in0.0 mm 0.00 in0.0 mm 0.00 in0.0 mm
11:45 AM 84.5°F29.2°C 44.7°F7.1°C 25% 3.0 mph SE4.8 kmh SE 9.0 mph14.5 kmh 30.07 in1018.3 mb 0.00 in0.0 mm 0.00 in0.0 mm 0.00 in0.0 mm
11:40 AM 84.1°F28.9°C 45.4°F7.4°C 26% 5.0 mph S8.0 kmh S 7.0 mph11.3 kmh 30.06 in1017.9 mb 0.00 in0.0 mm 0.00 in0.0 mm 0.00 in0.0 mm
11:35 AM 83.8°F28.8°C 45.2°F7.3°C 26% 4.0 mph SSE6.4 kmh SSE 7.0 mph11.3 kmh 30.07 in1018.3 mb 0.00 in0.0 mm 0.00 in0.0 mm 0.00 in0.0 mm
11:30 AM 83.6°F28.7°C 46.0°F7.8°C 27% 3.0 mph SSE4.8 kmh SSE 7.0 mph11.3 kmh 30.07 in1018.3 mb 0.00 in0.0 mm 0.00 in0.0 mm 0.00 in0.0 mm
11:25 AM 83.5°F28.6°C 45.9°F7.7°C 27% 3.0 mph SE4.8 kmh SE 7.0 mph11.3 kmh 30.07 in1018.3 mb 0.00 in0.0 mm 0.00 in0.0 mm 0.00 in0.0 mm
11:20 AM 83.5°F28.6°C 45.9°F7.7°C 27% 2.0 mph SSE3.2 kmh SSE 6.0 mph9.7 kmh 30.07 in1018.3 mb 0.00 in0.0 mm 0.00 in0.0 mm 0.00 in0.0 mm
11:15 AM 83.4°F28.6°C 45.8°F7.7°C 27% 3.0 mph S4.8 kmh S 6.0 mph9.7 kmh 30.08 in1018.6 mb 0.00 in0.0 mm 0.00 in0.0 mm 0.00 in0.0 mm
11:10 AM 83.3°F28.5°C 45.7°F7.6°C 27% 4.0 mph S6.4 kmh S 8.0 mph12.9 kmh 30.08 in1018.6 mb 0.00 in0.0 mm 0.00 in0.0 mm 0.00 in0.0 mm
11:05 AM 83.4°F28.6°C 45.8°F7.7°C 27% 5.0 mph S8.0 kmh S 6.0 mph9.7 kmh 30.08 in1018.6 mb 0.00 in0.0 mm 0.00 in0.0 mm 0.00 in0.0 mm
11:00 AM 83.2°F28.4°C 45.7°F7.6°C 27% 3.0 mph S4.8 kmh S 6.0 mph9.7 kmh 30.08 in1018.6 mb 0.00 in0.0 mm 0.00 in0.0 mm 0.00 in0.0 mm
10:55 AM 83.1°F28.4°C 45.6°F7.6°C 27% 3.0 mph SE4.8 kmh SE 8.0 mph12.9 kmh 30.08 in1018.6 mb 0.00 in0.0 mm 0.00 in0.0 mm 0.00 in0.0 mm
10:50 AM 83.0°F28.3°C 45.5°F7.5°C 27% 3.0 mph SE4.8 kmh SE 8.0 mph12.9 kmh 30.08 in1018.6 mb 0.00 in0.0 mm 0.00 in0.0 mm 0.00 in0.0 mm
10:45 AM 82.9°F28.3°C 45.4°F7.4°C 27% 2.0 mph SE3.2 kmh SE 6.0 mph9.7 kmh 30.09 in1019.0 mb 0.00 in0.0 mm 0.00 in0.0 mm 0.00 in0.0 mm
10:40 AM 82.9°F28.3°C 45.4°F7.4°C 27% 4.0 mph SE6.4 kmh SE 10.0 mph16.1 kmh 30.09 in1019.0 mb 0.00 in0.0 mm 0.00 in0.0 mm 0.00 in0.0 mm
10:35 AM 82.8°F28.2°C 45.3°F7.4°C 27% 3.0 mph SE4.8 kmh SE 11.0 mph17.7 kmh 30.09 in1019.0 mb 0.00 in0.0 mm 0.00 in0.0 mm 0.00 in0.0 mm
10:30 AM 82.9°F28.3°C 45.4°F7.4°C 27% 7.0 mph SSE11.3 kmh SSE 15.0 mph24.1 kmh 30.09 in1019.0 mb 0.00 in0.0 mm 0.00 in0.0 mm 0.00 in0.0 mm
10:25 AM 83.2°F28.4°C 45.7°F7.6°C 27% 9.0 mph ESE14.5 kmh ESE 16.0 mph25.7 kmh 30.09 in1019.0 mb 0.00 in0.0 mm 0.00 in0.0 mm 0.00 in0.0 mm
10:20 AM 83.4°F28.6°C 44.8°F7.1°C 26% 14.0 mph ESE22.5 kmh ESE 16.0 mph25.7 kmh 30.09 in1019.0 mb 0.00 in0.0 mm 0.00 in0.0 mm 0.00 in0.0 mm
10:15 AM 83.8°F28.8°C 45.2°F7.3°C 26% 12.0 mph ESE19.3 kmh ESE 15.0 mph24.1 kmh 30.09 in1019.0 mb 0.00 in0.0 mm 0.00 in0.0 mm 0.00 in0.0 mm
10:10 AM 84.0°F28.9°C 45.3°F7.4°C 26% 13.0 mph ESE20.9 kmh ESE 17.0 mph27.4 kmh 30.09 in1019.0 mb 0.00 in0.0 mm 0.00 in0.0 mm 0.00 in0.0 mm
10:05 AM 84.3°F29.1°C 45.6°F7.6°C 26% 11.0 mph ESE17.7 kmh ESE 14.0 mph22.5 kmh 30.09 in1019.0 mb 0.00 in0.0 mm 0.00 in0.0 mm 0.00 in0.0 mm
10:00 AM 84.4°F29.1°C 45.7°F7.6°C 26% 8.0 mph SSE12.9 kmh SSE 14.0 mph22.5 kmh 30.09 in1019.0 mb 0.00 in0.0 mm 0.00 in0.0 mm 0.00 in0.0 mm
09:55 AM 84.5°F29.2°C 45.8°F7.7°C 26% 4.0 mph SE6.4 kmh SE 11.0 mph17.7 kmh 30.09 in1019.0 mb 0.00 in0.0 mm 0.00 in0.0 mm 0.00 in0.0 mm
09:50 AM 84.4°F29.1°C 44.7°F7.1°C 25% 2.0 mph SE3.2 kmh SE 8.0 mph12.9 kmh 30.09 in1019.0 mb 0.00 in0.0 mm 0.00 in0.0 mm 0.00 in0.0 mm
09:45 AM 84.3°F29.1°C 44.6°F7.0°C 25% 5.0 mph ESE8.0 kmh ESE 14.0 mph22.5 kmh 30.09 in1019.0 mb 0.00 in0.0 mm 0.00 in0.0 mm 0.00 in0.0 mm
09:40 AM 84.2°F29.0°C 45.5°F7.5°C 26% 7.0 mph ESE11.3 kmh ESE 10.0 mph16.1 kmh 30.09 in1019.0 mb 0.00 in0.0 mm 0.00 in0.0 mm 0.00 in0.0 mm
09:35 AM 84.0°F28.9°C 45.3°F7.4°C 26% 4.0 mph ESE6.4 kmh ESE 8.0 mph12.9 kmh 30.09 in1019.0 mb 0.00 in0.0 mm 0.00 in0.0 mm 0.00 in0.0 mm
09:30 AM 83.8°F28.8°C 47.1°F8.4°C 28% 2.0 mph SE3.2 kmh SE 8.0 mph12.9 kmh 30.09 in1019.0 mb 0.00 in0.0 mm 0.00 in0.0 mm 0.00 in0.0 mm
09:25 AM 83.5°F28.6°C 46.9°F8.3°C 28% 3.0 mph SE4.8 kmh SE 5.0 mph8.0 kmh 30.09 in1019.0 mb 0.00 in0.0 mm 0.00 in0.0 mm 0.00 in0.0 mm
09:20 AM 83.3°F28.5°C 46.7°F8.2°C 28% 1.0 mph SE1.6 kmh SE 7.0 mph11.3 kmh 30.09 in1019.0 mb 0.00 in0.0 mm 0.00 in0.0 mm 0.00 in0.0 mm
09:15 AM 83.0°F28.3°C 46.5°F8.1°C 28% 2.0 mph SE3.2 kmh SE 8.0 mph12.9 kmh 30.09 in1019.0 mb 0.00 in0.0 mm 0.00 in0.0 mm 0.00 in0.0 mm
09:10 AM 82.9°F28.3°C 47.3°F8.5°C 29% 4.0 mph ESE6.4 kmh ESE 7.0 mph11.3 kmh 30.09 in1019.0 mb 0.00 in0.0 mm 0.00 in0.0 mm 0.00 in0.0 mm
09:05 AM 82.7°F28.2°C 47.1°F8.4°C 29% 1.0 mph SE1.6 kmh SE 7.0 mph11.3 kmh 30.09 in1019.0 mb 0.00 in0.0 mm 0.00 in0.0 mm 0.00 in0.0 mm
09:00 AM 82.5°F28.1°C 47.0°F8.3°C 29% 4.0 mph SE6.4 kmh SE 7.0 mph11.3 kmh 30.08 in1018.6 mb 0.00 in0.0 mm 0.00 in0.0 mm 0.00 in0.0 mm
08:55 AM 82.4°F28.0°C 46.9°F8.3°C 29% 3.0 mph SE4.8 kmh SE 7.0 mph11.3 kmh 30.08 in1018.6 mb 0.00 in0.0 mm 0.00 in0.0 mm 0.00 in0.0 mm
08:50 AM 82.3°F27.9°C 46.8°F8.2°C 29% 4.0 mph ESE6.4 kmh ESE 5.0 mph8.0 kmh 30.09 in1019.0 mb 0.00 in0.0 mm 0.00 in0.0 mm 0.00 in0.0 mm
08:45 AM 82.2°F27.9°C 46.7°F8.2°C 29% Calm Calm 7.0 mph11.3 kmh 30.08 in1018.6 mb 0.00 in0.0 mm 0.00 in0.0 mm 0.00 in0.0 mm
08:40 AM 82.1°F27.8°C 46.6°F8.1°C 29% 4.0 mph SE6.4 kmh SE 8.0 mph12.9 kmh 30.08 in1018.6 mb 0.00 in0.0 mm 0.00 in0.0 mm 0.00 in0.0 mm
08:35 AM 82.1°F27.8°C 47.5°F8.6°C 30% 3.0 mph SE4.8 kmh SE 4.0 mph6.4 kmh 30.08 in1018.6 mb 0.00 in0.0 mm 0.00 in0.0 mm 0.00 in0.0 mm
08:30 AM 82.1°F27.8°C 47.5°F8.6°C 30% Calm Calm 5.0 mph8.0 kmh 30.08 in1018.6 mb 0.00 in0.0 mm 0.00 in0.0 mm 0.00 in0.0 mm
08:25 AM 82.1°F27.8°C 46.6°F8.1°C 29% 4.0 mph SE6.4 kmh SE 4.0 mph6.4 kmh 30.08 in1018.6 mb 0.00 in0.0 mm 0.00 in0.0 mm 0.00 in0.0 mm
08:20 AM 82.0°F27.8°C 46.5°F8.1°C 29% 1.0 mph SE1.6 kmh SE 5.0 mph8.0 kmh 30.08 in1018.6 mb 0.00 in0.0 mm 0.00 in0.0 mm 0.00 in0.0 mm
08:15 AM 81.9°F27.7°C 47.3°F8.5°C 30% 1.0 mph SE1.6 kmh SE 3.0 mph4.8 kmh 30.07 in1018.3 mb 0.00 in0.0 mm 0.00 in0.0 mm 0.00 in0.0 mm
08:10 AM 81.9°F27.7°C 46.4°F8.0°C 29% 2.0 mph SE3.2 kmh SE 5.0 mph8.0 kmh 30.07 in1018.3 mb 0.00 in0.0 mm 0.00 in0.0 mm 0.00 in0.0 mm
08:05 AM 81.8°F27.7°C 47.3°F8.5°C 30% 3.0 mph SE4.8 kmh SE 7.0 mph11.3 kmh 30.07 in1018.3 mb 0.00 in0.0 mm 0.00 in0.0 mm 0.00 in0.0 mm
08:00 AM 81.7°F27.6°C 47.2°F8.4°C 30% 2.0 mph SE3.2 kmh SE 8.0 mph12.9 kmh 30.07 in1018.3 mb 0.00 in0.0 mm 0.00 in0.0 mm 0.00 in0.0 mm
07:55 AM 81.6°F27.6°C 47.1°F8.4°C 30% 4.0 mph SE6.4 kmh SE 7.0 mph11.3 kmh 30.07 in1018.3 mb 0.00 in0.0 mm 0.00 in0.0 mm 0.00 in0.0 mm
07:50 AM 81.4°F27.4°C 46.9°F8.3°C 30% 3.0 mph SE4.8 kmh SE 7.0 mph11.3 kmh 30.07 in1018.3 mb 0.00 in0.0 mm 0.00 in0.0 mm 0.00 in0.0 mm
07:45 AM 81.3°F27.4°C 46.8°F8.2°C 30% 3.0 mph SE4.8 kmh SE 6.0 mph9.7 kmh 30.07 in1018.3 mb 0.00 in0.0 mm 0.00 in0.0 mm 0.00 in0.0 mm
07:40 AM 81.2°F27.3°C 46.7°F8.2°C 30% 3.0 mph SSE4.8 kmh SSE 8.0 mph12.9 kmh 30.07 in1018.3 mb 0.00 in0.0 mm 0.00 in0.0 mm 0.00 in0.0 mm
07:35 AM 81.1°F27.3°C 46.7°F8.2°C 30% 4.0 mph SE6.4 kmh SE 5.0 mph8.0 kmh 30.07 in1018.3 mb 0.00 in0.0 mm 0.00 in0.0 mm 0.00 in0.0 mm
07:30 AM 81.1°F27.3°C 46.7°F8.2°C 30% 3.0 mph SE4.8 kmh SE 4.0 mph6.4 kmh 30.07 in1018.3 mb 0.00 in0.0 mm 0.00 in0.0 mm 0.00 in0.0 mm
07:25 AM 81.0°F27.2°C 46.6°F8.1°C 30% 3.0 mph SE4.8 kmh SE 4.0 mph6.4 kmh 30.07 in1018.3 mb 0.00 in0.0 mm 0.00 in0.0 mm 0.00 in0.0 mm
07:20 AM 81.0°F27.2°C 46.6°F8.1°C 30% 1.0 mph SE1.6 kmh SE 5.0 mph8.0 kmh 30.07 in1018.3 mb 0.00 in0.0 mm 0.00 in0.0 mm 0.00 in0.0 mm
07:15 AM 81.1°F27.3°C 46.7°F8.2°C 30% 4.0 mph SE6.4 kmh SE 5.0 mph8.0 kmh 30.07 in1018.3 mb 0.00 in0.0 mm 0.00 in0.0 mm 0.00 in0.0 mm
07:10 AM 81.1°F27.3°C 45.8°F7.7°C 29% 1.0 mph SSE1.6 kmh SSE 4.0 mph6.4 kmh 30.06 in1017.9 mb 0.00 in0.0 mm 0.00 in0.0 mm 0.00 in0.0 mm
07:05 AM 81.2°F27.3°C 45.8°F7.7°C 29% Calm Calm 3.0 mph4.8 kmh 30.07 in1018.3 mb 0.00 in0.0 mm 0.00 in0.0 mm 0.00 in0.0 mm
07:00 AM 81.2°F27.3°C 45.8°F7.7°C 29% 2.0 mph E3.2 kmh E 3.0 mph4.8 kmh 30.07 in1018.3 mb 0.00 in0.0 mm 0.00 in0.0 mm 0.00 in0.0 mm
06:55 AM 81.3°F27.4°C 45.9°F7.7°C 29% 3.0 mph ESE4.8 kmh ESE 6.0 mph9.7 kmh 30.06 in1017.9 mb 0.00 in0.0 mm 0.00 in0.0 mm 0.00 in0.0 mm
06:50 AM 81.3°F27.4°C 45.9°F7.7°C 29% 2.0 mph E3.2 kmh E 10.0 mph16.1 kmh 30.06 in1017.9 mb 0.00 in0.0 mm 0.00 in0.0 mm 0.00 in0.0 mm
06:45 AM 81.4°F27.4°C 46.0°F7.8°C 29% 1.0 mph E1.6 kmh E 5.0 mph8.0 kmh 30.06 in1017.9 mb 0.00 in0.0 mm 0.00 in0.0 mm 0.00 in0.0 mm
06:40 AM 81.5°F27.5°C 45.2°F7.3°C 28% 1.0 mph ESE1.6 kmh ESE 5.0 mph8.0 kmh 30.06 in1017.9 mb 0.00 in0.0 mm 0.00 in0.0 mm 0.00 in0.0 mm
06:35 AM 81.5°F27.5°C 45.2°F7.3°C 28% 2.0 mph ESE3.2 kmh ESE 6.0 mph9.7 kmh 30.06 in1017.9 mb 0.00 in0.0 mm 0.00 in0.0 mm 0.00 in0.0 mm
06:30 AM 81.5°F27.5°C 45.2°F7.3°C 28% 2.0 mph ENE3.2 kmh ENE 8.0 mph12.9 kmh 30.06 in1017.9 mb 0.00 in0.0 mm 0.00 in0.0 mm 0.00 in0.0 mm
06:25 AM 81.5°F27.5°C 45.2°F7.3°C 28% 5.0 mph E8.0 kmh E 11.0 mph17.7 kmh 30.06 in1017.9 mb 0.00 in0.0 mm 0.00 in0.0 mm 0.00 in0.0 mm
06:20 AM 81.5°F27.5°C 45.2°F7.3°C 28% 9.0 mph SE14.5 kmh SE 7.0 mph11.3 kmh 30.06 in1017.9 mb 0.00 in0.0 mm 0.00 in0.0 mm 0.00 in0.0 mm
06:15 AM 81.6°F27.6°C 45.3°F7.4°C 28% 2.0 mph N3.2 kmh N 5.0 mph8.0 kmh 30.06 in1017.9 mb 0.00 in0.0 mm 0.00 in0.0 mm 0.00 in0.0 mm
06:10 AM 81.6°F27.6°C 45.3°F7.4°C 28% 4.0 mph NE6.4 kmh NE 10.0 mph16.1 kmh 30.05 in1017.6 mb 0.00 in0.0 mm 0.00 in0.0 mm 0.00 in0.0 mm
06:05 AM 81.7°F27.6°C 45.3°F7.4°C 28% 2.0 mph SE3.2 kmh SE 5.0 mph8.0 kmh 30.05 in1017.6 mb 0.00 in0.0 mm 0.00 in0.0 mm 0.00 in0.0 mm
06:00 AM 81.6°F27.6°C 45.3°F7.4°C 28% 5.0 mph E8.0 kmh E 6.0 mph9.7 kmh 30.05 in1017.6 mb 0.00 in0.0 mm 0.00 in0.0 mm 0.00 in0.0 mm
05:55 AM 81.5°F27.5°C 45.2°F7.3°C 28% 3.0 mph E4.8 kmh E 9.0 mph14.5 kmh 30.05 in1017.6 mb 0.00 in0.0 mm 0.00 in0.0 mm 0.00 in0.0 mm
05:50 AM 81.3°F27.4°C 45.0°F7.2°C 28% 2.0 mph E3.2 kmh E 8.0 mph12.9 kmh 30.05 in1017.6 mb 0.00 in0.0 mm 0.00 in0.0 mm 0.00 in0.0 mm
05:45 AM 81.2°F27.3°C 44.9°F7.2°C 28% 7.0 mph ESE11.3 kmh ESE 8.0 mph12.9 kmh 30.05 in1017.6 mb 0.00 in0.0 mm 0.00 in0.0 mm 0.00 in0.0 mm
05:40 AM 81.0°F27.2°C 44.7°F7.1°C 28% 4.0 mph SE6.4 kmh SE 8.0 mph12.9 kmh 30.04 in1017.3 mb 0.00 in0.0 mm 0.00 in0.0 mm 0.00 in0.0 mm
05:35 AM 80.4°F26.9°C 45.2°F7.3°C 29% 2.0 mph E3.2 kmh E 6.0 mph9.7 kmh 30.04 in1017.3 mb 0.00 in0.0 mm 0.00 in0.0 mm 0.00 in0.0 mm
05:30 AM 80.2°F26.8°C 45.0°F7.2°C 29% Calm Calm 3.0 mph4.8 kmh 30.04 in1017.3 mb 0.00 in0.0 mm 0.00 in0.0 mm 0.00 in0.0 mm
05:25 AM 80.1°F26.7°C 44.9°F7.2°C 29% 2.0 mph E3.2 kmh E 6.0 mph9.7 kmh 30.04 in1017.3 mb 0.00 in0.0 mm 0.00 in0.0 mm 0.00 in0.0 mm
05:20 AM 80.1°F26.7°C 44.9°F7.2°C 29% 1.0 mph ESE1.6 kmh ESE 2.0 mph3.2 kmh 30.04 in1017.3 mb 0.00 in0.0 mm 0.00 in0.0 mm 0.00 in0.0 mm
05:15 AM 80.1°F26.7°C 44.9°F7.2°C 29% Calm Calm 3.0 mph4.8 kmh 30.04 in1017.3 mb 0.00 in0.0 mm 0.00 in0.0 mm 0.00 in0.0 mm
05:10 AM 80.3°F26.8°C 45.1°F7.3°C 29% Calm Calm 1.0 mph1.6 kmh 30.03 in1016.9 mb 0.00 in0.0 mm 0.00 in0.0 mm 0.00 in0.0 mm
05:05 AM 80.3°F26.8°C 45.1°F7.3°C 29% Calm Calm 3.0 mph4.8 kmh 30.03 in1016.9 mb 0.00 in0.0 mm 0.00 in0.0 mm 0.00 in0.0 mm
05:00 AM 80.4°F26.9°C 45.2°F7.3°C 29% 1.0 mph ESE1.6 kmh ESE 2.0 mph3.2 kmh 30.03 in1016.9 mb 0.00 in0.0 mm 0.00 in0.0 mm 0.00 in0.0 mm
04:55 AM 80.6°F27.0°C 45.3°F7.4°C 29% 1.0 mph ESE1.6 kmh ESE 2.0 mph3.2 kmh 30.03 in1016.9 mb 0.00 in0.0 mm 0.00 in0.0 mm 0.00 in0.0 mm
04:50 AM 80.7°F27.1°C 45.4°F7.4°C 29% 1.0 mph ESE1.6 kmh ESE 2.0 mph3.2 kmh 30.03 in1016.9 mb 0.00 in0.0 mm 0.00 in0.0 mm 0.00 in0.0 mm
04:45 AM 80.8°F27.1°C 45.5°F7.5°C 29% Calm Calm 3.0 mph4.8 kmh 30.03 in1016.9 mb 0.00 in0.0 mm 0.00 in0.0 mm 0.00 in0.0 mm
04:40 AM 80.9°F27.2°C 45.6°F7.6°C 29% 1.0 mph SE1.6 kmh SE 2.0 mph3.2 kmh 30.03 in1016.9 mb 0.00 in0.0 mm 0.00 in0.0 mm 0.00 in0.0 mm
04:35 AM 81.1°F27.3°C 45.8°F7.7°C 29% 1.0 mph SE1.6 kmh SE 3.0 mph4.8 kmh 30.02 in1016.6 mb 0.00 in0.0 mm 0.00 in0.0 mm 0.00 in0.0 mm
04:30 AM 81.2°F27.3°C 45.8°F7.7°C 29% 1.0 mph SE1.6 kmh SE 3.0 mph4.8 kmh 30.02 in1016.6 mb 0.00 in0.0 mm 0.00 in0.0 mm 0.00 in0.0 mm
04:25 AM 81.3°F27.4°C 45.9°F7.7°C 29% Calm Calm 2.0 mph3.2 kmh 30.02 in1016.6 mb 0.00 in0.0 mm 0.00 in0.0 mm 0.00 in0.0 mm
04:20 AM 81.4°F27.4°C 45.1°F7.3°C 28% 1.0 mph SE1.6 kmh SE 4.0 mph6.4 kmh 30.02 in1016.6 mb 0.00 in0.0 mm 0.00 in0.0 mm 0.00 in0.0 mm
04:15 AM 81.6°F27.6°C 45.3°F7.4°C 28% 2.0 mph SSE3.2 kmh SSE 4.0 mph6.4 kmh 30.02 in1016.6 mb 0.00 in0.0 mm 0.00 in0.0 mm 0.00 in0.0 mm
04:10 AM 81.7°F27.6°C 45.3°F7.4°C 28% 4.0 mph SSE6.4 kmh SSE 4.0 mph6.4 kmh 30.02 in1016.6 mb 0.00 in0.0 mm 0.00 in0.0 mm 0.00 in0.0 mm
04:05 AM 81.8°F27.7°C 44.5°F6.9°C 27% 3.0 mph SE4.8 kmh SE 3.0 mph4.8 kmh 30.01 in1016.3 mb 0.00 in0.0 mm 0.00 in0.0 mm 0.00 in0.0 mm
04:00 AM 81.8°F27.7°C 44.5°F6.9°C 27% 2.0 mph SE3.2 kmh SE 5.0 mph8.0 kmh 30.01 in1016.3 mb 0.00 in0.0 mm 0.00 in0.0 mm 0.00 in0.0 mm
03:55 AM 81.9°F27.7°C 44.6°F7.0°C 27% 1.0 mph S1.6 kmh S 5.0 mph8.0 kmh 30.01 in1016.3 mb 0.00 in0.0 mm 0.00 in0.0 mm 0.00 in0.0 mm
03:50 AM 82.0°F27.8°C 44.6°F7.0°C 27% 1.0 mph SE1.6 kmh SE 5.0 mph8.0 kmh 30.01 in1016.3 mb 0.00 in0.0 mm 0.00 in0.0 mm 0.00 in0.0 mm
03:45 AM 82.0°F27.8°C 44.6°F7.0°C 27% 2.0 mph SE3.2 kmh SE 6.0 mph9.7 kmh 30.01 in1016.3 mb 0.00 in0.0 mm 0.00 in0.0 mm 0.00 in0.0 mm
03:40 AM 82.0°F27.8°C 44.6°F7.0°C 27% 1.0 mph SE1.6 kmh SE 6.0 mph9.7 kmh 30.00 in1015.9 mb 0.00 in0.0 mm 0.00 in0.0 mm 0.00 in0.0 mm
03:35 AM 82.1°F27.8°C 44.7°F7.1°C 27% 3.0 mph S4.8 kmh S 5.0 mph8.0 kmh 30.00 in1015.9 mb 0.00 in0.0 mm 0.00 in0.0 mm 0.00 in0.0 mm
03:30 AM 82.0°F27.8°C 44.6°F7.0°C 27% 3.0 mph SE4.8 kmh SE 8.0 mph12.9 kmh 30.00 in1015.9 mb 0.00 in0.0 mm 0.00 in0.0 mm 0.00 in0.0 mm
03:25 AM 82.0°F27.8°C 44.6°F7.0°C 27% 2.0 mph SE3.2 kmh SE 7.0 mph11.3 kmh 30.00 in1015.9 mb 0.00 in0.0 mm 0.00 in0.0 mm 0.00 in0.0 mm
03:20 AM 82.1°F27.8°C 44.7°F7.1°C 27% Calm Calm 5.0 mph8.0 kmh 30.00 in1015.9 mb 0.00 in0.0 mm 0.00 in0.0 mm 0.00 in0.0 mm
03:15 AM 82.3°F27.9°C 43.9°F6.6°C 26% 2.0 mph SE3.2 kmh SE 5.0 mph8.0 kmh 30.00 in1015.9 mb 0.00 in0.0 mm 0.00 in0.0 mm 0.00 in0.0 mm
03:10 AM 82.4°F28.0°C 44.0°F6.7°C 26% 5.0 mph SSE8.0 kmh SSE 5.0 mph8.0 kmh 30.00 in1015.9 mb 0.00 in0.0 mm 0.00 in0.0 mm 0.00 in0.0 mm
03:05 AM 82.5°F28.1°C 44.1°F6.7°C 26% 2.0 mph SE3.2 kmh SE 5.0 mph8.0 kmh 30.00 in1015.9 mb 0.00 in0.0 mm 0.00 in0.0 mm 0.00 in0.0 mm
03:00 AM 82.7°F28.2°C 43.2°F6.2°C 25% 2.0 mph SE3.2 kmh SE 5.0 mph8.0 kmh 30.00 in1015.9 mb 0.00 in0.0 mm 0.00 in0.0 mm 0.00 in0.0 mm
02:55 AM 82.8°F28.2°C 43.3°F6.3°C 25% 2.0 mph SE3.2 kmh SE 7.0 mph11.3 kmh 30.00 in1015.9 mb 0.00 in0.0 mm 0.00 in0.0 mm 0.00 in0.0 mm
02:50 AM 82.9°F28.3°C 43.4°F6.3°C 25% 8.0 mph ESE12.9 kmh ESE 8.0 mph12.9 kmh 30.00 in1015.9 mb 0.00 in0.0 mm 0.00 in0.0 mm 0.00 in0.0 mm
02:45 AM 83.0°F28.3°C 43.5°F6.4°C 25% 6.0 mph SE9.7 kmh SE 7.0 mph11.3 kmh 30.00 in1015.9 mb 0.00 in0.0 mm 0.00 in0.0 mm 0.00 in0.0 mm
02:40 AM 83.2°F28.4°C 42.6°F5.9°C 24% 3.0 mph SE4.8 kmh SE 6.0 mph9.7 kmh 30.00 in1015.9 mb 0.00 in0.0 mm 0.00 in0.0 mm 0.00 in0.0 mm
02:35 AM 83.3°F28.5°C 42.7°F5.9°C 24% 2.0 mph ESE3.2 kmh ESE 7.0 mph11.3 kmh 30.00 in1015.9 mb 0.00 in0.0 mm 0.00 in0.0 mm 0.00 in0.0 mm
02:30 AM 83.5°F28.6°C 41.7°F5.4°C 23% 3.0 mph SE4.8 kmh SE 11.0 mph17.7 kmh 30.00 in1015.9 mb 0.00 in0.0 mm 0.00 in0.0 mm 0.00 in0.0 mm
02:25 AM 83.7°F28.7°C 41.9°F5.5°C 23% 1.0 mph SE1.6 kmh SE 6.0 mph9.7 kmh 30.00 in1015.9 mb 0.00 in0.0 mm 0.00 in0.0 mm 0.00 in0.0 mm
02:20 AM 83.9°F28.8°C 42.1°F5.6°C 23% 2.0 mph SSE3.2 kmh SSE 11.0 mph17.7 kmh 30.00 in1015.9 mb 0.00 in0.0 mm 0.00 in0.0 mm 0.00 in0.0 mm
02:15 AM 84.0°F28.9°C 41.0°F5.0°C 22% 7.0 mph SE11.3 kmh SE 10.0 mph16.1 kmh 30.00 in1015.9 mb 0.00 in0.0 mm 0.00 in0.0 mm 0.00 in0.0 mm
02:10 AM 84.0°F28.9°C 41.0°F5.0°C 22% 8.0 mph SE12.9 kmh SE 17.0 mph27.4 kmh 30.00 in1015.9 mb 0.00 in0.0 mm 0.00 in0.0 mm 0.00 in0.0 mm
02:05 AM 83.9°F28.8°C 39.7°F4.3°C 21% 4.0 mph SE6.4 kmh SE 12.0 mph19.3 kmh 30.00 in1015.9 mb 0.00 in0.0 mm 0.00 in0.0 mm 0.00 in0.0 mm
02:00 AM 83.9°F28.8°C 38.5°F3.6°C 20% 5.0 mph SE8.0 kmh SE 15.0 mph24.1 kmh 30.00 in1015.9 mb 0.00 in0.0 mm 0.00 in0.0 mm 0.00 in0.0 mm
01:55 AM 83.9°F28.8°C 38.5°F3.6°C 20% 3.0 mph S4.8 kmh S 10.0 mph16.1 kmh 30.00 in1015.9 mb 0.00 in0.0 mm 0.00 in0.0 mm 0.00 in0.0 mm
01:50 AM 83.9°F28.8°C 37.2°F2.9°C 19% 4.0 mph SE6.4 kmh SE 7.0 mph11.3 kmh 30.00 in1015.9 mb 0.00 in0.0 mm 0.00 in0.0 mm 0.00 in0.0 mm
01:45 AM 84.0°F28.9°C 35.9°F2.2°C 18% 7.0 mph SE11.3 kmh SE 7.0 mph11.3 kmh 30.01 in1016.3 mb 0.00 in0.0 mm 0.00 in0.0 mm 0.00 in0.0 mm
01:40 AM 84.2°F29.0°C 34.6°F1.4°C 17% 5.0 mph ESE8.0 kmh ESE 9.0 mph14.5 kmh 30.01 in1016.3 mb 0.00 in0.0 mm 0.00 in0.0 mm 0.00 in0.0 mm
01:35 AM 84.4°F29.1°C 34.7°F1.5°C 17% 4.0 mph SE6.4 kmh SE 9.0 mph14.5 kmh 30.01 in1016.3 mb 0.00 in0.0 mm 0.00 in0.0 mm 0.00 in0.0 mm
01:30 AM 84.5°F29.2°C 36.3°F2.4°C 18% 6.0 mph SE9.7 kmh SE 12.0 mph19.3 kmh 30.00 in1015.9 mb 0.00 in0.0 mm 0.00 in0.0 mm 0.00 in0.0 mm
01:25 AM 84.5°F29.2°C 36.3°F2.4°C 18% 5.0 mph SE8.0 kmh SE 12.0 mph19.3 kmh 30.00 in1015.9 mb 0.00 in0.0 mm 0.00 in0.0 mm 0.00 in0.0 mm
01:20 AM 84.4°F29.1°C 36.2°F2.3°C 18% 6.0 mph SE9.7 kmh SE 12.0 mph19.3 kmh 30.00 in1015.9 mb 0.00 in0.0 mm 0.00 in0.0 mm 0.00 in0.0 mm
01:15 AM 84.1°F28.9°C 35.9°F2.2°C 18% 5.0 mph SE8.0 kmh SE 13.0 mph20.9 kmh 30.00 in1015.9 mb 0.00 in0.0 mm 0.00 in0.0 mm 0.00 in0.0 mm
01:10 AM 83.7°F28.7°C 34.2°F1.2°C 17% 4.0 mph SSE6.4 kmh SSE 13.0 mph20.9 kmh 30.00 in1015.9 mb 0.00 in0.0 mm 0.00 in0.0 mm 0.00 in0.0 mm
01:05 AM 83.0°F28.3°C 35.1°F1.7°C 18% 10.0 mph SE16.1 kmh SE 13.0 mph20.9 kmh 30.00 in1015.9 mb 0.00 in0.0 mm 0.00 in0.0 mm 0.00 in0.0 mm
01:00 AM 82.2°F27.9°C 34.4°F1.3°C 18% 4.0 mph SSE6.4 kmh SSE 8.0 mph12.9 kmh 30.00 in1015.9 mb 0.00 in0.0 mm 0.00 in0.0 mm 0.00 in0.0 mm
12:55 AM 81.0°F27.2°C 34.8°F1.6°C 19% 4.0 mph SE6.4 kmh SE 12.0 mph19.3 kmh 30.00 in1015.9 mb 0.00 in0.0 mm 0.00 in0.0 mm 0.00 in0.0 mm
12:50 AM 78.9°F26.1°C 34.4°F1.3°C 20% 8.0 mph ESE12.9 kmh ESE 10.0 mph16.1 kmh 29.99 in1015.6 mb 0.00 in0.0 mm 0.00 in0.0 mm 0.00 in0.0 mm
12:45 AM 77.1°F25.1°C 34.1°F1.2°C 21% 5.0 mph E8.0 kmh E 8.0 mph12.9 kmh 29.98 in1015.2 mb 0.00 in0.0 mm 0.00 in0.0 mm 0.00 in0.0 mm
12:40 AM 76.7°F24.8°C 33.8°F1.0°C 21% Calm Calm 2.0 mph3.2 kmh 29.98 in1015.2 mb 0.00 in0.0 mm 0.00 in0.0 mm 0.00 in0.0 mm
12:35 AM 76.4°F24.7°C 33.5°F0.8°C 21% 1.0 mph ESE1.6 kmh ESE 5.0 mph8.0 kmh 29.98 in1015.2 mb 0.00 in0.0 mm 0.00 in0.0 mm 0.00 in0.0 mm
12:30 AM 75.4°F24.1°C 32.7°F0.4°C 21% 2.0 mph E3.2 kmh E 4.0 mph6.4 kmh 29.98 in1015.2 mb 0.00 in0.0 mm 0.00 in0.0 mm 0.00 in0.0 mm
12:25 AM 75.1°F23.9°C 33.6°F0.9°C 22% Calm Calm 1.0 mph1.6 kmh 29.98 in1015.2 mb 0.00 in0.0 mm 0.00 in0.0 mm 0.00 in0.0 mm
12:20 AM 75.0°F23.9°C 33.5°F0.8°C 22% Calm Calm 2.0 mph3.2 kmh 29.98 in1015.2 mb 0.00 in0.0 mm 0.00 in0.0 mm 0.00 in0.0 mm
12:15 AM 75.0°F23.9°C 33.5°F0.8°C 22% Calm Calm -- 29.98 in1015.2 mb 0.00 in0.0 mm 0.00 in0.0 mm 0.00 in0.0 mm
12:10 AM 74.9°F23.8°C 33.4°F0.8°C 22% Calm Calm 3.0 mph4.8 kmh 29.98 in1015.2 mb 0.00 in0.0 mm 0.00 in0.0 mm 0.00 in0.0 mm
12:05 AM 74.8°F23.8°C 33.3°F0.7°C 22% Calm Calm 2.0 mph3.2 kmh 29.97 in1014.9 mb 0.00 in0.0 mm 0.00 in0.0 mm 0.00 in0.0 mm
12:00 AM 74.6°F23.7°C 33.2°F0.7°C 22% Calm Calm 2.0 mph3.2 kmh 29.97 in1014.9 mb 0.00 in0.0 mm 0.00 in0.0 mm 0.00 in0.0 mm